sensor_id;sensor_type;location;lat;lon;timestamp;temperature;humidity
3923;DHT22;1976;51.694;6.256;2023-07-20T00:01:13;17.60;99.90
3923;DHT22;1976;51.694;6.256;2023-07-20T00:03:39;17.60;99.90
3923;DHT22;1976;51.694;6.256;2023-07-20T00:06:04;17.60;99.90
3923;DHT22;1976;51.694;6.256;2023-07-20T00:08:30;17.60;99.90
3923;DHT22;1976;51.694;6.256;2023-07-20T00:10:56;17.60;99.90
3923;DHT22;1976;51.694;6.256;2023-07-20T00:13:22;17.60;99.90
3923;DHT22;1976;51.694;6.256;2023-07-20T00:15:48;17.70;99.90
3923;DHT22;1976;51.694;6.256;2023-07-20T00:18:14;17.70;99.90
3923;DHT22;1976;51.694;6.256;2023-07-20T00:20:39;17.70;99.90
3923;DHT22;1976;51.694;6.256;2023-07-20T00:23:06;17.80;99.90
3923;DHT22;1976;51.694;6.256;2023-07-20T00:25:32;17.80;99.90
3923;DHT22;1976;51.694;6.256;2023-07-20T00:27:59;17.90;99.90
3923;DHT22;1976;51.694;6.256;2023-07-20T00:30:24;18.00;99.90
3923;DHT22;1976;51.694;6.256;2023-07-20T00:32:50;18.00;99.90
3923;DHT22;1976;51.694;6.256;2023-07-20T00:35:16;18.00;99.90
3923;DHT22;1976;51.694;6.256;2023-07-20T00:37:42;18.00;99.90
3923;DHT22;1976;51.694;6.256;2023-07-20T00:40:08;16.50;99.90
3923;DHT22;1976;51.694;6.256;2023-07-20T00:42:34;18.00;99.90
3923;DHT22;1976;51.694;6.256;2023-07-20T00:45:00;17.90;99.90
3923;DHT22;1976;51.694;6.256;2023-07-20T00:47:27;17.90;99.90
3923;DHT22;1976;51.694;6.256;2023-07-20T00:49:53;17.90;99.90
3923;DHT22;1976;51.694;6.256;2023-07-20T00:52:21;19.00;99.90
3923;DHT22;1976;51.694;6.256;2023-07-20T00:54:49;18.00;99.90
3923;DHT22;1976;51.694;6.256;2023-07-20T00:57:15;18.10;99.90
3923;DHT22;1976;51.694;6.256;2023-07-20T00:59:43;18.10;99.90
3923;DHT22;1976;51.694;6.256;2023-07-20T01:02:09;18.20;99.90
3923;DHT22;1976;51.694;6.256;2023-07-20T01:04:35;18.10;99.90
3923;DHT22;1976;51.694;6.256;2023-07-20T01:07:36;18.00;99.90
3923;DHT22;1976;51.694;6.256;2023-07-20T01:12:53;17.90;99.90
3923;DHT22;1976;51.694;6.256;2023-07-20T01:15:20;18.40;99.90
3923;DHT22;1976;51.694;6.256;2023-07-20T01:17:46;17.80;99.90
3923;DHT22;1976;51.694;6.256;2023-07-20T01:20:16;17.70;99.90
3923;DHT22;1976;51.694;6.256;2023-07-20T01:28:35;17.50;99.90
3923;DHT22;1976;51.694;6.256;2023-07-20T01:31:24;17.40;99.90
3923;DHT22;1976;51.694;6.256;2023-07-20T01:33:51;17.40;99.90
3923;DHT22;1976;51.694;6.256;2023-07-20T01:36:22;17.30;99.90
3923;DHT22;1976;51.694;6.256;2023-07-20T01:38:48;17.30;99.90
3923;DHT22;1976;51.694;6.256;2023-07-20T01:41:15;17.30;99.90
3923;DHT22;1976;51.694;6.256;2023-07-20T01:43:42;17.30;99.90
3923;DHT22;1976;51.694;6.256;2023-07-20T01:46:07;17.30;99.90
3923;DHT22;1976;51.694;6.256;2023-07-20T01:48:33;17.20;99.90
3923;DHT22;1976;51.694;6.256;2023-07-20T01:50:58;17.20;99.90
3923;DHT22;1976;51.694;6.256;2023-07-20T01:53:24;17.20;99.90
3923;DHT22;1976;51.694;6.256;2023-07-20T01:55:52;17.20;99.90
3923;DHT22;1976;51.694;6.256;2023-07-20T01:58:18;17.20;99.90
3923;DHT22;1976;51.694;6.256;2023-07-20T02:00:44;17.20;99.90
3923;DHT22;1976;51.694;6.256;2023-07-20T02:03:10;17.20;99.90
3923;DHT22;1976;51.694;6.256;2023-07-20T02:05:37;17.20;99.90
3923;DHT22;1976;51.694;6.256;2023-07-20T02:08:03;17.20;99.90
3923;DHT22;1976;51.694;6.256;2023-07-20T02:10:28;17.20;99.90
3923;DHT22;1976;51.694;6.256;2023-07-20T02:12:54;17.20;99.90
3923;DHT22;1976;51.694;6.256;2023-07-20T02:15:20;15.10;99.90
3923;DHT22;1976;51.694;6.256;2023-07-20T02:17:46;17.20;99.90
3923;DHT22;1976;51.694;6.256;2023-07-20T02:20:12;17.20;99.90
3923;DHT22;1976;51.694;6.256;2023-07-20T02:22:39;17.20;99.90
3923;DHT22;1976;51.694;6.256;2023-07-20T02:25:05;17.20;99.90
3923;DHT22;1976;51.694;6.256;2023-07-20T02:27:33;17.20;99.90
3923;DHT22;1976;51.694;6.256;2023-07-20T02:29:59;17.10;99.90
3923;DHT22;1976;51.694;6.256;2023-07-20T02:32:25;17.00;99.90
3923;DHT22;1976;51.694;6.256;2023-07-20T02:34:50;17.00;99.90
3923;DHT22;1976;51.694;6.256;2023-07-20T02:37:17;17.00;99.90
3923;DHT22;1976;51.694;6.256;2023-07-20T02:39:42;17.00;99.90
3923;DHT22;1976;51.694;6.256;2023-07-20T02:42:08;17.00;99.90
3923;DHT22;1976;51.694;6.256;2023-07-20T02:44:34;16.90;99.90
3923;DHT22;1976;51.694;6.256;2023-07-20T02:46:59;16.90;99.90
3923;DHT22;1976;51.694;6.256;2023-07-20T02:49:26;16.90;99.90
3923;DHT22;1976;51.694;6.256;2023-07-20T02:51:52;16.90;99.90
3923;DHT22;1976;51.694;6.256;2023-07-20T02:54:18;16.90;99.90
3923;DHT22;1976;51.694;6.256;2023-07-20T02:56:44;16.90;99.90
3923;DHT22;1976;51.694;6.256;2023-07-20T02:59:09;16.80;99.90
3923;DHT22;1976;51.694;6.256;2023-07-20T03:01:35;16.90;99.90
3923;DHT22;1976;51.694;6.256;2023-07-20T03:04:01;16.90;99.90
3923;DHT22;1976;51.694;6.256;2023-07-20T03:06:28;16.90;99.90
3923;DHT22;1976;51.694;6.256;2023-07-20T03:08:53;16.90;99.90
3923;DHT22;1976;51.694;6.256;2023-07-20T03:11:20;16.90;99.90
3923;DHT22;1976;51.694;6.256;2023-07-20T03:13:46;16.90;99.90
3923;DHT22;1976;51.694;6.256;2023-07-20T03:16:15;16.90;99.90
3923;DHT22;1976;51.694;6.256;2023-07-20T03:18:41;16.80;99.90
3923;DHT22;1976;51.694;6.256;2023-07-20T03:21:08;16.80;99.90
3923;DHT22;1976;51.694;6.256;2023-07-20T03:23:37;16.70;99.90
3923;DHT22;1976;51.694;6.256;2023-07-20T03:26:02;16.70;99.90
3923;DHT22;1976;51.694;6.256;2023-07-20T03:28:28;16.60;99.90
3923;DHT22;1976;51.694;6.256;2023-07-20T03:30:54;16.50;99.90
3923;DHT22;1976;51.694;6.256;2023-07-20T03:33:25;16.50;99.90
3923;DHT22;1976;51.694;6.256;2023-07-20T03:35:50;16.40;99.90
3923;DHT22;1976;51.694;6.256;2023-07-20T03:38:16;16.50;99.90
3923;DHT22;1976;51.694;6.256;2023-07-20T03:40:52;16.50;99.90
3923;DHT22;1976;51.694;6.256;2023-07-20T03:43:18;16.40;99.90
3923;DHT22;1976;51.694;6.256;2023-07-20T03:45:44;16.40;99.90
3923;DHT22;1976;51.694;6.256;2023-07-20T03:48:23;16.30;99.90
3923;DHT22;1976;51.694;6.256;2023-07-20T03:50:51;16.30;99.90
3923;DHT22;1976;51.694;6.256;2023-07-20T03:53:17;16.30;99.90
3923;DHT22;1976;51.694;6.256;2023-07-20T03:55:47;16.30;99.90
3923;DHT22;1976;51.694;6.256;2023-07-20T03:58:14;16.30;99.90
3923;DHT22;1976;51.694;6.256;2023-07-20T04:00:40;16.30;99.90
3923;DHT22;1976;51.694;6.256;2023-07-20T04:03:08;16.30;99.90
3923;DHT22;1976;51.694;6.256;2023-07-20T04:05:34;16.30;99.90
3923;DHT22;1976;51.694;6.256;2023-07-20T04:07:59;16.30;99.90
3923;DHT22;1976;51.694;6.256;2023-07-20T04:10:25;16.30;99.90
3923;DHT22;1976;51.694;6.256;2023-07-20T04:12:50;16.30;99.90
3923;DHT22;1976;51.694;6.256;2023-07-20T04:15:16;16.30;99.90
3923;DHT22;1976;51.694;6.256;2023-07-20T04:17:42;16.20;99.90
3923;DHT22;1976;51.694;6.256;2023-07-20T04:20:08;16.20;99.90
3923;DHT22;1976;51.694;6.256;2023-07-20T04:22:34;16.20;99.90
3923;DHT22;1976;51.694;6.256;2023-07-20T04:25:00;16.10;99.90
3923;DHT22;1976;51.694;6.256;2023-07-20T04:27:26;15.30;99.90
3923;DHT22;1976;51.694;6.256;2023-07-20T04:29:52;16.00;99.90
3923;DHT22;1976;51.694;6.256;2023-07-20T04:32:18;16.00;99.90
3923;DHT22;1976;51.694;6.256;2023-07-20T04:34:44;16.00;99.90
3923;DHT22;1976;51.694;6.256;2023-07-20T04:37:09;16.00;99.90
3923;DHT22;1976;51.694;6.256;2023-07-20T04:39:35;16.00;99.90
3923;DHT22;1976;51.694;6.256;2023-07-20T04:42:00;16.00;99.90
3923;DHT22;1976;51.694;6.256;2023-07-20T04:44:26;16.00;99.90
3923;DHT22;1976;51.694;6.256;2023-07-20T04:46:52;16.00;99.90
3923;DHT22;1976;51.694;6.256;2023-07-20T04:49:18;16.10;99.90
3923;DHT22;1976;51.694;6.256;2023-07-20T04:51:43;16.10;99.90
3923;DHT22;1976;51.694;6.256;2023-07-20T04:54:09;16.10;99.90
3923;DHT22;1976;51.694;6.256;2023-07-20T04:56:34;16.10;99.90
3923;DHT22;1976;51.694;6.256;2023-07-20T04:59:00;16.10;99.90
3923;DHT22;1976;51.694;6.256;2023-07-20T05:01:26;16.20;99.90
3923;DHT22;1976;51.694;6.256;2023-07-20T05:03:52;16.20;99.90
3923;DHT22;1976;51.694;6.256;2023-07-20T05:06:18;16.20;99.90
3923;DHT22;1976;51.694;6.256;2023-07-20T05:08:44;16.20;99.90
3923;DHT22;1976;51.694;6.256;2023-07-20T05:11:10;16.30;99.90
3923;DHT22;1976;51.694;6.256;2023-07-20T05:13:36;16.40;99.90
3923;DHT22;1976;51.694;6.256;2023-07-20T05:16:02;16.40;99.90
3923;DHT22;1976;51.694;6.256;2023-07-20T05:18:27;16.50;99.90
3923;DHT22;1976;51.694;6.256;2023-07-20T05:20:53;16.50;99.90
3923;DHT22;1976;51.694;6.256;2023-07-20T05:23:20;16.60;99.90
3923;DHT22;1976;51.694;6.256;2023-07-20T05:25:47;16.60;99.90
3923;DHT22;1976;51.694;6.256;2023-07-20T05:28:13;16.70;99.90
3923;DHT22;1976;51.694;6.256;2023-07-20T05:30:39;16.70;99.90
3923;DHT22;1976;51.694;6.256;2023-07-20T05:33:05;16.70;99.90
3923;DHT22;1976;51.694;6.256;2023-07-20T05:35:30;16.70;99.90
3923;DHT22;1976;51.694;6.256;2023-07-20T05:37:56;16.80;99.90
3923;DHT22;1976;51.694;6.256;2023-07-20T05:40:22;16.80;99.90
3923;DHT22;1976;51.694;6.256;2023-07-20T05:42:48;16.80;99.90
3923;DHT22;1976;51.694;6.256;2023-07-20T05:45:14;16.90;99.90
3923;DHT22;1976;51.694;6.256;2023-07-20T05:47:41;17.00;99.90
3923;DHT22;1976;51.694;6.256;2023-07-20T05:50:07;17.00;99.90
3923;DHT22;1976;51.694;6.256;2023-07-20T05:52:33;17.10;99.90
3923;DHT22;1976;51.694;6.256;2023-07-20T05:54:58;17.20;99.90
3923;DHT22;1976;51.694;6.256;2023-07-20T05:57:24;17.30;99.90
3923;DHT22;1976;51.694;6.256;2023-07-20T05:59:50;17.40;99.90
3923;DHT22;1976;51.694;6.256;2023-07-20T06:02:16;17.50;99.90
3923;DHT22;1976;51.694;6.256;2023-07-20T06:04:42;17.60;99.90
3923;DHT22;1976;51.694;6.256;2023-07-20T06:07:07;17.70;99.90
3923;DHT22;1976;51.694;6.256;2023-07-20T06:09:33;17.80;99.90
3923;DHT22;1976;51.694;6.256;2023-07-20T06:11:59;18.00;99.90
3923;DHT22;1976;51.694;6.256;2023-07-20T06:14:25;18.10;99.90
3923;DHT22;1976;51.694;6.256;2023-07-20T06:16:51;18.30;99.90
3923;DHT22;1976;51.694;6.256;2023-07-20T06:19:16;18.40;99.90
3923;DHT22;1976;51.694;6.256;2023-07-20T06:21:42;18.50;99.90
3923;DHT22;1976;51.694;6.256;2023-07-20T06:24:08;18.60;99.90
3923;DHT22;1976;51.694;6.256;2023-07-20T06:26:33;18.70;99.90
3923;DHT22;1976;51.694;6.256;2023-07-20T06:29:05;18.80;99.90
3923;DHT22;1976;51.694;6.256;2023-07-20T06:31:32;18.90;99.90
3923;DHT22;1976;51.694;6.256;2023-07-20T06:33:58;19.00;99.90
3923;DHT22;1976;51.694;6.256;2023-07-20T06:36:23;19.10;99.90
3923;DHT22;1976;51.694;6.256;2023-07-20T06:38:51;19.10;99.90
3923;DHT22;1976;51.694;6.256;2023-07-20T06:41:17;19.30;99.90
3923;DHT22;1976;51.694;6.256;2023-07-20T06:43:43;19.40;99.90
3923;DHT22;1976;51.694;6.256;2023-07-20T06:46:09;19.60;99.90
3923;DHT22;1976;51.694;6.256;2023-07-20T06:48:35;19.70;99.90
3923;DHT22;1976;51.694;6.256;2023-07-20T06:51:00;20.00;99.90
3923;DHT22;1976;51.694;6.256;2023-07-20T06:53:26;20.20;99.90
3923;DHT22;1976;51.694;6.256;2023-07-20T06:55:51;20.20;99.90
3923;DHT22;1976;51.694;6.256;2023-07-20T06:58:17;20.20;99.90
3923;DHT22;1976;51.694;6.256;2023-07-20T07:00:43;20.20;99.90
3923;DHT22;1976;51.694;6.256;2023-07-20T07:03:10;20.40;99.90
3923;DHT22;1976;51.694;6.256;2023-07-20T07:05:38;20.50;99.90
3923;DHT22;1976;51.694;6.256;2023-07-20T07:08:07;20.70;99.90
3923;DHT22;1976;51.694;6.256;2023-07-20T07:10:34;20.80;99.90
3923;DHT22;1976;51.694;6.256;2023-07-20T07:13:00;20.90;99.90
3923;DHT22;1976;51.694;6.256;2023-07-20T07:15:26;21.00;99.90
3923;DHT22;1976;51.694;6.256;2023-07-20T07:17:53;21.00;99.90
3923;DHT22;1976;51.694;6.256;2023-07-20T07:20:19;21.00;99.90
3923;DHT22;1976;51.694;6.256;2023-07-20T07:22:44;21.10;99.90
3923;DHT22;1976;51.694;6.256;2023-07-20T07:25:11;21.20;99.90
3923;DHT22;1976;51.694;6.256;2023-07-20T07:27:37;21.50;99.90
3923;DHT22;1976;51.694;6.256;2023-07-20T07:30:03;21.70;99.90
3923;DHT22;1976;51.694;6.256;2023-07-20T07:32:29;21.70;99.90
3923;DHT22;1976;51.694;6.256;2023-07-20T07:34:55;21.80;99.90
3923;DHT22;1976;51.694;6.256;2023-07-20T07:37:21;21.90;99.90
3923;DHT22;1976;51.694;6.256;2023-07-20T07:39:47;22.10;99.90
3923;DHT22;1976;51.694;6.256;2023-07-20T07:42:12;22.30;99.90
3923;DHT22;1976;51.694;6.256;2023-07-20T07:44:38;22.60;99.90
3923;DHT22;1976;51.694;6.256;2023-07-20T07:47:04;22.90;99.90
3923;DHT22;1976;51.694;6.256;2023-07-20T07:49:30;23.30;99.90
3923;DHT22;1976;51.694;6.256;2023-07-20T07:51:56;23.50;99.90
3923;DHT22;1976;51.694;6.256;2023-07-20T07:54:22;23.70;99.90
3923;DHT22;1976;51.694;6.256;2023-07-20T07:56:48;23.80;99.90
3923;DHT22;1976;51.694;6.256;2023-07-20T07:59:13;23.90;99.90
3923;DHT22;1976;51.694;6.256;2023-07-20T08:01:39;23.80;99.90
3923;DHT22;1976;51.694;6.256;2023-07-20T08:04:05;23.60;99.90
3923;DHT22;1976;51.694;6.256;2023-07-20T08:06:31;23.30;99.90
3923;DHT22;1976;51.694;6.256;2023-07-20T08:08:57;23.00;99.90
3923;DHT22;1976;51.694;6.256;2023-07-20T08:11:23;23.00;99.90
3923;DHT22;1976;51.694;6.256;2023-07-20T08:13:49;22.80;99.90
3923;DHT22;1976;51.694;6.256;2023-07-20T08:16:15;22.80;99.90
3923;DHT22;1976;51.694;6.256;2023-07-20T08:18:40;22.60;99.90
3923;DHT22;1976;51.694;6.256;2023-07-20T08:21:06;22.60;99.90
3923;DHT22;1976;51.694;6.256;2023-07-20T08:23:32;22.50;99.60
3923;DHT22;1976;51.694;6.256;2023-07-20T08:25:57;22.50;99.30
3923;DHT22;1976;51.694;6.256;2023-07-20T08:28:23;22.40;99.10
3923;DHT22;1976;51.694;6.256;2023-07-20T08:30:49;22.40;98.90
3923;DHT22;1976;51.694;6.256;2023-07-20T08:33:16;22.50;99.40
3923;DHT22;1976;51.694;6.256;2023-07-20T08:35:44;22.70;99.50
3923;DHT22;1976;51.694;6.256;2023-07-20T08:38:10;22.90;99.50
3923;DHT22;1976;51.694;6.256;2023-07-20T08:40:40;23.10;99.00
3923;DHT22;1976;51.694;6.256;2023-07-20T08:43:06;23.30;99.00
3923;DHT22;1976;51.694;6.256;2023-07-20T08:45:33;23.50;98.10
3923;DHT22;1976;51.694;6.256;2023-07-20T08:48:01;23.70;98.00
3923;DHT22;1976;51.694;6.256;2023-07-20T08:50:30;24.10;98.40
3923;DHT22;1976;51.694;6.256;2023-07-20T08:52:57;24.60;99.80
3923;DHT22;1976;51.694;6.256;2023-07-20T08:55:24;25.30;98.30
3923;DHT22;1976;51.694;6.256;2023-07-20T08:57:56;26.10;96.10
3923;DHT22;1976;51.694;6.256;2023-07-20T09:00:23;26.00;94.00
3923;DHT22;1976;51.694;6.256;2023-07-20T09:02:50;25.60;93.20
3923;DHT22;1976;51.694;6.256;2023-07-20T09:05:17;26.00;93.70
3923;DHT22;1976;51.694;6.256;2023-07-20T09:07:43;26.60;93.30
3923;DHT22;1976;51.694;6.256;2023-07-20T09:10:09;26.90;92.20
3923;DHT22;1976;51.694;6.256;2023-07-20T09:12:37;27.40;92.20
3923;DHT22;1976;51.694;6.256;2023-07-20T09:15:04;27.80;90.00
3923;DHT22;1976;51.694;6.256;2023-07-20T09:17:30;28.20;90.10
3923;DHT22;1976;51.694;6.256;2023-07-20T09:19:56;28.40;88.60
3923;DHT22;1976;51.694;6.256;2023-07-20T09:22:21;28.40;86.90
3923;DHT22;1976;51.694;6.256;2023-07-20T09:24:47;28.30;85.60
3923;DHT22;1976;51.694;6.256;2023-07-20T09:27:13;28.30;83.90
3923;DHT22;1976;51.694;6.256;2023-07-20T09:29:49;28.70;84.00
3923;DHT22;1976;51.694;6.256;2023-07-20T09:32:21;28.80;81.70
3923;DHT22;1976;51.694;6.256;2023-07-20T09:34:48;29.20;82.90
3923;DHT22;1976;51.694;6.256;2023-07-20T09:37:22;29.90;81.10
3923;DHT22;1976;51.694;6.256;2023-07-20T09:39:48;30.40;78.90
3923;DHT22;1976;51.694;6.256;2023-07-20T09:42:16;30.70;77.80
3923;DHT22;1976;51.694;6.256;2023-07-20T09:44:45;31.60;77.10
3923;DHT22;1976;51.694;6.256;2023-07-20T09:47:11;31.80;75.20
3923;DHT22;1976;51.694;6.256;2023-07-20T09:49:40;32.10;77.70
3923;DHT22;1976;51.694;6.256;2023-07-20T09:52:08;33.30;76.40
3923;DHT22;1976;51.694;6.256;2023-07-20T09:54:38;34.60;73.90
3923;DHT22;1976;51.694;6.256;2023-07-20T09:57:07;35.70;68.40
3923;DHT22;1976;51.694;6.256;2023-07-20T09:59:33;36.50;66.20
3923;DHT22;1976;51.694;6.256;2023-07-20T10:02:01;36.90;64.80
3923;DHT22;1976;51.694;6.256;2023-07-20T10:04:28;36.60;61.10
3923;DHT22;1976;51.694;6.256;2023-07-20T10:06:55;36.40;61.30
3923;DHT22;1976;51.694;6.256;2023-07-20T10:09:24;36.00;58.60
3923;DHT22;1976;51.694;6.256;2023-07-20T10:11:50;35.60;58.00
3923;DHT22;1976;51.694;6.256;2023-07-20T10:14:20;34.50;56.40
3923;DHT22;1976;51.694;6.256;2023-07-20T10:16:58;33.40;58.70
3923;DHT22;1976;51.694;6.256;2023-07-20T10:19:50;32.20;59.70
3923;DHT22;1976;51.694;6.256;2023-07-20T10:22:27;31.10;60.70
3923;DHT22;1976;51.694;6.256;2023-07-20T10:24:54;30.30;63.30
3923;DHT22;1976;51.694;6.256;2023-07-20T10:27:21;30.60;65.30
3923;DHT22;1976;51.694;6.256;2023-07-20T10:29:48;31.90;63.80
3923;DHT22;1976;51.694;6.256;2023-07-20T10:32:14;33.60;61.10
3923;DHT22;1976;51.694;6.256;2023-07-20T10:34:40;35.20;58.60
3923;DHT22;1976;51.694;6.256;2023-07-20T10:37:05;36.70;58.70
3923;DHT22;1976;51.694;6.256;2023-07-20T10:39:32;38.30;57.30
3923;DHT22;1976;51.694;6.256;2023-07-20T10:42:07;39.60;53.30
3923;DHT22;1976;51.694;6.256;2023-07-20T10:44:34;39.20;46.00
3923;DHT22;1976;51.694;6.256;2023-07-20T10:47:03;38.80;46.70
3923;DHT22;1976;51.694;6.256;2023-07-20T10:49:34;37.90;47.70
3923;DHT22;1976;51.694;6.256;2023-07-20T10:52:04;36.40;47.00
3923;DHT22;1976;51.694;6.256;2023-07-20T10:56:57;37.00;49.00
3923;DHT22;1976;51.694;6.256;2023-07-20T11:01:49;38.00;47.40
3923;DHT22;1976;51.694;6.256;2023-07-20T11:04:15;37.20;45.40
3923;DHT22;1976;51.694;6.256;2023-07-20T11:06:44;36.50;46.10
3923;DHT22;1976;51.694;6.256;2023-07-20T11:09:13;36.00;48.30
3923;DHT22;1976;51.694;6.256;2023-07-20T11:11:48;35.70;49.60
3923;DHT22;1976;51.694;6.256;2023-07-20T11:14:24;35.10;48.70
3923;DHT22;1976;51.694;6.256;2023-07-20T11:16:51;34.10;49.10
3923;DHT22;1976;51.694;6.256;2023-07-20T11:19:23;32.80;49.20
3923;DHT22;1976;51.694;6.256;2023-07-20T11:21:54;31.60;50.60
3923;DHT22;1976;51.694;6.256;2023-07-20T11:24:20;30.30;53.40
3923;DHT22;1976;51.694;6.256;2023-07-20T11:26:48;29.20;55.70
3923;DHT22;1976;51.694;6.256;2023-07-20T11:29:15;28.40;58.70
3923;DHT22;1976;51.694;6.256;2023-07-20T11:31:42;27.90;60.00
3923;DHT22;1976;51.694;6.256;2023-07-20T11:34:14;27.60;61.60
3923;DHT22;1976;51.694;6.256;2023-07-20T11:36:41;27.60;64.30
3923;DHT22;1976;51.694;6.256;2023-07-20T11:39:12;27.50;62.80
3923;DHT22;1976;51.694;6.256;2023-07-20T11:41:39;28.30;62.80
3923;DHT22;1976;51.694;6.256;2023-07-20T11:44:10;29.50;57.80
3923;DHT22;1976;51.694;6.256;2023-07-20T11:46:42;30.40;59.50
3923;DHT22;1976;51.694;6.256;2023-07-20T11:49:08;31.70;58.40
3923;DHT22;1976;51.694;6.256;2023-07-20T11:51:34;34.00;55.90
3923;DHT22;1976;51.694;6.256;2023-07-20T11:54:02;36.10;52.90
3923;DHT22;1976;51.694;6.256;2023-07-20T11:56:28;36.40;50.60
3923;DHT22;1976;51.694;6.256;2023-07-20T11:59:01;35.90;48.70
3923;DHT22;1976;51.694;6.256;2023-07-20T12:01:29;36.20;48.00
3923;DHT22;1976;51.694;6.256;2023-07-20T12:03:57;36.30;47.20
3923;DHT22;1976;51.694;6.256;2023-07-20T12:06:25;37.20;46.20
3923;DHT22;1976;51.694;6.256;2023-07-20T12:08:52;38.20;45.40
3923;DHT22;1976;51.694;6.256;2023-07-20T12:11:33;39.30;43.60
3923;DHT22;1976;51.694;6.256;2023-07-20T12:14:00;39.70;42.80
3923;DHT22;1976;51.694;6.256;2023-07-20T12:16:29;39.10;41.60
3923;DHT22;1976;51.694;6.256;2023-07-20T12:19:08;39.20;42.90
3923;DHT22;1976;51.694;6.256;2023-07-20T12:21:38;40.00;41.40
3923;DHT22;1976;51.694;6.256;2023-07-20T12:24:06;40.50;40.20
3923;DHT22;1976;51.694;6.256;2023-07-20T12:26:33;41.50;38.90
3923;DHT22;1976;51.694;6.256;2023-07-20T12:28:59;42.10;37.10
3923;DHT22;1976;51.694;6.256;2023-07-20T12:31:26;42.20;36.10
3923;DHT22;1976;51.694;6.256;2023-07-20T12:33:53;42.10;36.30
3923;DHT22;1976;51.694;6.256;2023-07-20T12:36:21;40.70;35.30
3923;DHT22;1976;51.694;6.256;2023-07-20T12:38:46;40.00;37.90
3923;DHT22;1976;51.694;6.256;2023-07-20T12:41:13;40.90;36.60
3923;DHT22;1976;51.694;6.256;2023-07-20T12:43:42;42.20;36.20
3923;DHT22;1976;51.694;6.256;2023-07-20T12:46:09;43.40;35.60
3923;DHT22;1976;51.694;6.256;2023-07-20T12:48:36;43.60;34.20
3923;DHT22;1976;51.694;6.256;2023-07-20T12:51:05;43.70;34.40
3923;DHT22;1976;51.694;6.256;2023-07-20T12:53:32;44.00;32.80
3923;DHT22;1976;51.694;6.256;2023-07-20T12:55:58;43.80;33.50
3923;DHT22;1976;51.694;6.256;2023-07-20T12:58:24;42.70;34.10
3923;DHT22;1976;51.694;6.256;2023-07-20T13:00:50;42.10;34.60
3923;DHT22;1976;51.694;6.256;2023-07-20T13:03:16;42.20;33.60
3923;DHT22;1976;51.694;6.256;2023-07-20T13:05:44;41.10;33.20
3923;DHT22;1976;51.694;6.256;2023-07-20T13:08:09;40.90;33.70
3923;DHT22;1976;51.694;6.256;2023-07-20T13:10:36;41.20;32.50
3923;DHT22;1976;51.694;6.256;2023-07-20T13:13:01;41.50;32.30
3923;DHT22;1976;51.694;6.256;2023-07-20T13:15:31;42.00;31.90
3923;DHT22;1976;51.694;6.256;2023-07-20T13:17:58;42.30;31.30
3923;DHT22;1976;51.694;6.256;2023-07-20T13:20:25;42.10;31.60
3923;DHT22;1976;51.694;6.256;2023-07-20T13:22:50;42.50;32.40
3923;DHT22;1976;51.694;6.256;2023-07-20T13:25:16;43.50;32.10
3923;DHT22;1976;51.694;6.256;2023-07-20T13:27:42;43.10;30.60
3923;DHT22;1976;51.694;6.256;2023-07-20T13:30:08;41.30;32.40
3923;DHT22;1976;51.694;6.256;2023-07-20T13:32:35;39.50;33.20
3923;DHT22;1976;51.694;6.256;2023-07-20T13:35:02;38.00;34.10
3923;DHT22;1976;51.694;6.256;2023-07-20T13:37:28;36.70;35.00
3923;DHT22;1976;51.694;6.256;2023-07-20T13:39:54;35.90;35.80
3923;DHT22;1976;51.694;6.256;2023-07-20T13:42:20;35.40;36.10
3923;DHT22;1976;51.694;6.256;2023-07-20T13:44:47;36.30;36.00
3923;DHT22;1976;51.694;6.256;2023-07-20T13:47:13;37.70;35.70
3923;DHT22;1976;51.694;6.256;2023-07-20T13:49:39;38.70;33.50
3923;DHT22;1976;51.694;6.256;2023-07-20T13:52:05;39.00;33.50
3923;DHT22;1976;51.694;6.256;2023-07-20T13:54:31;38.50;34.90
3923;DHT22;1976;51.694;6.256;2023-07-20T13:56:56;38.20;34.40
3923;DHT22;1976;51.694;6.256;2023-07-20T13:59:23;37.70;34.60
3923;DHT22;1976;51.694;6.256;2023-07-20T14:01:48;36.90;35.70
3923;DHT22;1976;51.694;6.256;2023-07-20T14:04:14;35.90;36.60
3923;DHT22;1976;51.694;6.256;2023-07-20T14:06:40;35.10;37.60
3923;DHT22;1976;51.694;6.256;2023-07-20T14:09:06;34.30;37.90
3923;DHT22;1976;51.694;6.256;2023-07-20T14:11:33;33.40;39.30
3923;DHT22;1976;51.694;6.256;2023-07-20T18:37:39;23.30;67.10
3923;DHT22;1976;51.694;6.256;2023-07-20T18:40:05;23.20;68.10
3923;DHT22;1976;51.694;6.256;2023-07-20T18:42:35;23.00;68.20
3923;DHT22;1976;51.694;6.256;2023-07-20T18:45:01;22.80;68.80
3923;DHT22;1976;51.694;6.256;2023-07-20T18:47:27;22.80;69.80
3923;DHT22;1976;51.694;6.256;2023-07-20T18:49:53;22.60;70.90
3923;DHT22;1976;51.694;6.256;2023-07-20T18:52:22;22.50;72.00
3923;DHT22;1976;51.694;6.256;2023-07-20T18:54:48;22.50;73.00
3923;DHT22;1976;51.694;6.256;2023-07-20T18:57:14;22.40;73.80
3923;DHT22;1976;51.694;6.256;2023-07-20T18:59:39;22.30;74.60
3923;DHT22;1976;51.694;6.256;2023-07-20T19:02:07;22.20;75.00
3923;DHT22;1976;51.694;6.256;2023-07-20T19:04:32;22.10;75.60
3923;DHT22;1976;51.694;6.256;2023-07-20T19:06:58;22.00;76.00
3923;DHT22;1976;51.694;6.256;2023-07-20T19:09:24;21.90;76.60
3923;DHT22;1976;51.694;6.256;2023-07-20T19:11:51;21.80;76.50
3923;DHT22;1976;51.694;6.256;2023-07-20T19:14:17;21.80;76.00
3923;DHT22;1976;51.694;6.256;2023-07-20T19:16:43;21.70;77.00
3923;DHT22;1976;51.694;6.256;2023-07-20T19:19:09;21.60;79.50
3923;DHT22;1976;51.694;6.256;2023-07-20T19:21:35;21.60;81.30
3923;DHT22;1976;51.694;6.256;2023-07-20T19:24:01;21.50;80.70
3923;DHT22;1976;51.694;6.256;2023-07-20T19:26:27;21.40;81.00
3923;DHT22;1976;51.694;6.256;2023-07-20T19:28:53;21.40;81.50
3923;DHT22;1976;51.694;6.256;2023-07-20T19:31:19;21.40;82.00
3923;DHT22;1976;51.694;6.256;2023-07-20T19:33:45;21.30;82.10
3923;DHT22;1976;51.694;6.256;2023-07-20T19:36:10;21.30;82.70
3923;DHT22;1976;51.694;6.256;2023-07-20T19:38:36;21.30;83.60
3923;DHT22;1976;51.694;6.256;2023-07-20T19:41:02;21.30;85.50
3923;DHT22;1976;51.694;6.256;2023-07-20T19:43:31;21.30;88.30
3923;DHT22;1976;51.694;6.256;2023-07-20T19:45:57;21.20;90.70
3923;DHT22;1976;51.694;6.256;2023-07-20T19:48:23;21.00;91.20
3923;DHT22;1976;51.694;6.256;2023-07-20T19:50:50;21.00;93.30
3923;DHT22;1976;51.694;6.256;2023-07-20T19:53:18;20.80;95.20
3923;DHT22;1976;51.694;6.256;2023-07-20T19:55:44;20.60;96.60
3923;DHT22;1976;51.694;6.256;2023-07-20T19:58:10;20.40;99.30
3923;DHT22;1976;51.694;6.256;2023-07-20T20:00:40;20.00;99.90
3923;DHT22;1976;51.694;6.256;2023-07-20T20:03:07;19.50;99.90
3923;DHT22;1976;51.694;6.256;2023-07-20T20:05:34;19.00;99.90
3923;DHT22;1976;51.694;6.256;2023-07-20T20:08:02;18.70;99.90
3923;DHT22;1976;51.694;6.256;2023-07-20T20:10:33;18.60;99.90
3923;DHT22;1976;51.694;6.256;2023-07-20T20:13:00;18.40;99.90
3923;DHT22;1976;51.694;6.256;2023-07-20T20:15:27;18.20;99.90
3923;DHT22;1976;51.694;6.256;2023-07-20T20:17:54;18.10;99.90
3923;DHT22;1976;51.694;6.256;2023-07-20T20:20:20;18.00;99.90
3923;DHT22;1976;51.694;6.256;2023-07-20T20:22:46;17.90;99.90
3923;DHT22;1976;51.694;6.256;2023-07-20T20:25:12;17.80;99.90
3923;DHT22;1976;51.694;6.256;2023-07-20T20:27:38;17.90;99.90
3923;DHT22;1976;51.694;6.256;2023-07-20T20:30:06;17.90;99.90
3923;DHT22;1976;51.694;6.256;2023-07-20T20:32:32;17.90;99.90
3923;DHT22;1976;51.694;6.256;2023-07-20T20:35:04;18.00;99.90
3923;DHT22;1976;51.694;6.256;2023-07-20T20:37:30;18.00;99.90